Terminal Aerodrome Forecast
Issued by NWS

Home | Current Version | Previous Version | Text Only | Print | Product List | Glossary On
Versions: 1 2 3 4 5 6 7 8 9 10 11 12 13 14 15 16 17 18 19 20 21
631
FTUS44 KLZK 180520
TAFHRO
TAF
KHRO 180520Z 1806/1906 VRB03KT P6SM OVC009
     FM181000 VRB02KT 4SM BR OVC005
      TEMPO 1810/1814 2SM BR OVC002
     FM181500 12004KT P6SM OVC015
     FM190100 13005KT 4SM -DZ BR OVC005=

USA.gov is the U.S. government's official web portal to all federal, state and local government web resources and services.